sensor_id;sensor_type;location;lat;lon;timestamp;P1;durP1;ratioP1;P2;durP2;ratioP2
15665;SDS011;20725;51.196;3.510;2022-08-05T06:38:22;3.13;;;1.93;;
15665;SDS011;20725;51.196;3.510;2022-08-05T06:40:58;2.83;;;1.80;;
15665;SDS011;20725;51.196;3.510;2022-08-05T06:43:26;3.53;;;2.17;;
15665;SDS011;20725;51.196;3.510;2022-08-05T06:45:53;3.87;;;1.80;;
15665;SDS011;20725;51.196;3.510;2022-08-05T06:48:23;4.13;;;1.70;;
15665;SDS011;20725;51.196;3.510;2022-08-05T06:50:53;2.73;;;1.50;;
15665;SDS011;20725;51.196;3.510;2022-08-05T06:53:37;5.37;;;2.20;;
15665;SDS011;20725;51.196;3.510;2022-08-05T06:56:07;2.20;;;1.60;;
15665;SDS011;20725;51.196;3.510;2022-08-05T06:58:50;3.50;;;1.63;;
15665;SDS011;20725;51.196;3.510;2022-08-05T07:01:31;2.33;;;1.40;;
15665;SDS011;20725;51.196;3.510;2022-08-05T07:04:00;4.50;;;1.60;;
15665;SDS011;20725;51.196;3.510;2022-08-05T07:06:30;2.80;;;1.40;;
15665;SDS011;20725;51.196;3.510;2022-08-05T07:08:57;3.30;;;1.33;;
15665;SDS011;20725;51.196;3.510;2022-08-05T07:11:35;3.93;;;0.90;;
15665;SDS011;20725;51.196;3.510;2022-08-05T07:14:17;3.40;;;0.97;;
15665;SDS011;20725;51.196;3.510;2022-08-05T07:17:04;0.93;;;0.70;;
15665;SDS011;20725;51.196;3.510;2022-08-05T07:19:31;4.73;;;1.20;;
15665;SDS011;20725;51.196;3.510;2022-08-05T07:21:58;1.90;;;0.77;;
15665;SDS011;20725;51.196;3.510;2022-08-05T07:24:35;2.20;;;0.90;;
15665;SDS011;20725;51.196;3.510;2022-08-05T07:27:07;5.87;;;1.30;;
15665;SDS011;20725;51.196;3.510;2022-08-05T07:29:36;2.37;;;0.90;;
15665;SDS011;20725;51.196;3.510;2022-08-05T07:32:13;2.83;;;1.10;;
15665;SDS011;20725;51.196;3.510;2022-08-05T07:34:47;2.80;;;0.70;;
15665;SDS011;20725;51.196;3.510;2022-08-05T07:37:16;2.47;;;0.80;;
15665;SDS011;20725;51.196;3.510;2022-08-05T07:39:57;2.77;;;0.67;;
15665;SDS011;20725;51.196;3.510;2022-08-05T07:45:12;1.90;;;0.87;;
15665;SDS011;20725;51.196;3.510;2022-08-05T07:47:42;5.73;;;1.00;;
15665;SDS011;20725;51.196;3.510;2022-08-05T07:50:10;1.37;;;0.80;;
15665;SDS011;20725;51.196;3.510;2022-08-05T07:52:38;1.90;;;0.87;;
15665;SDS011;20725;51.196;3.510;2022-08-05T07:55:06;2.57;;;0.87;;
15665;SDS011;20725;51.196;3.510;2022-08-05T07:57:34;0.80;;;0.52;;
15665;SDS011;20725;51.196;3.510;2022-08-05T08:02:51;4.57;;;0.95;;
15665;SDS011;20725;51.196;3.510;2022-08-05T08:05:25;1.98;;;0.73;;
15665;SDS011;20725;51.196;3.510;2022-08-05T08:07:53;2.90;;;0.90;;
15665;SDS011;20725;51.196;3.510;2022-08-05T08:10:23;2.90;;;0.85;;
15665;SDS011;20725;51.196;3.510;2022-08-05T08:13:11;1.70;;;0.90;;
15665;SDS011;20725;51.196;3.510;2022-08-05T08:15:46;1.50;;;1.02;;
15665;SDS011;20725;51.196;3.510;2022-08-05T08:18:21;1.75;;;0.63;;
15665;SDS011;20725;51.196;3.510;2022-08-05T08:20:56;1.98;;;0.70;;
15665;SDS011;20725;51.196;3.510;2022-08-05T08:23:37;1.23;;;0.50;;
15665;SDS011;20725;51.196;3.510;2022-08-05T08:29:10;1.85;;;0.40;;
15665;SDS011;20725;51.196;3.510;2022-08-05T08:31:59;3.85;;;0.60;;
15665;SDS011;20725;51.196;3.510;2022-08-05T08:34:31;1.35;;;0.60;;
15665;SDS011;20725;51.196;3.510;2022-08-05T08:37:04;2.20;;;0.63;;
15665;SDS011;20725;51.196;3.510;2022-08-05T08:39:39;4.80;;;0.70;;
15665;SDS011;20725;51.196;3.510;2022-08-05T08:42:12;2.65;;;0.85;;
15665;SDS011;20725;51.196;3.510;2022-08-05T08:44:46;3.05;;;0.60;;
15665;SDS011;20725;51.196;3.510;2022-08-05T08:47:34;3.90;;;1.05;;
15665;SDS011;20725;51.196;3.510;2022-08-05T08:50:10;3.03;;;0.90;;
15665;SDS011;20725;51.196;3.510;2022-08-05T08:52:56;5.87;;;1.30;;
15665;SDS011;20725;51.196;3.510;2022-08-05T08:55:30;7.77;;;0.73;;
15665;SDS011;20725;51.196;3.510;2022-08-05T08:58:13;2.40;;;0.82;;
15665;SDS011;20725;51.196;3.510;2022-08-05T09:00:51;6.20;;;0.68;;
15665;SDS011;20725;51.196;3.510;2022-08-05T09:03:23;0.52;;;0.43;;
15665;SDS011;20725;51.196;3.510;2022-08-05T09:06:10;2.72;;;0.77;;
15665;SDS011;20725;51.196;3.510;2022-08-05T09:08:53;1.83;;;0.65;;
15665;SDS011;20725;51.196;3.510;2022-08-05T09:11:26;5.85;;;0.73;;
15665;SDS011;20725;51.196;3.510;2022-08-05T09:13:55;1.67;;;0.65;;
15665;SDS011;20725;51.196;3.510;2022-08-05T09:16:31;2.80;;;0.70;;
15665;SDS011;20725;51.196;3.510;2022-08-05T09:19:08;1.85;;;0.77;;
15665;SDS011;20725;51.196;3.510;2022-08-05T09:21:37;3.05;;;0.75;;
15665;SDS011;20725;51.196;3.510;2022-08-05T09:24:06;3.65;;;0.80;;
15665;SDS011;20725;51.196;3.510;2022-08-05T09:29:20;1.20;;;0.55;;
15665;SDS011;20725;51.196;3.510;2022-08-05T09:32:08;2.60;;;0.60;;
15665;SDS011;20725;51.196;3.510;2022-08-05T09:57:35;1.70;;;0.50;;
15665;SDS011;20725;51.196;3.510;2022-08-05T10:05:03;3.90;;;0.60;;
15665;SDS011;20725;51.196;3.510;2022-08-05T10:07:48;1.40;;;0.55;;
15665;SDS011;20725;51.196;3.510;2022-08-05T10:10:35;1.45;;;0.30;;
15665;SDS011;20725;51.196;3.510;2022-08-05T10:13:07;0.77;;;0.30;;
15665;SDS011;20725;51.196;3.510;2022-08-05T10:15:38;1.42;;;0.38;;
15665;SDS011;20725;51.196;3.510;2022-08-05T10:18:10;4.38;;;0.40;;
15665;SDS011;20725;51.196;3.510;2022-08-05T10:20:42;1.17;;;0.30;;
15665;SDS011;20725;51.196;3.510;2022-08-05T11:47:43;2.30;;;0.60;;
15665;SDS011;20725;51.196;3.510;2022-08-05T11:50:16;0.70;;;0.30;;
15665;SDS011;20725;51.196;3.510;2022-08-05T11:55:16;1.40;;;0.30;;
15665;SDS011;20725;51.196;3.510;2022-08-05T12:10:48;1.00;;;0.30;;
15665;SDS011;20725;51.196;3.510;2022-08-05T12:13:20;0.93;;;0.40;;
15665;SDS011;20725;51.196;3.510;2022-08-05T12:15:49;1.98;;;0.60;;
15665;SDS011;20725;51.196;3.510;2022-08-05T12:18:32;3.38;;;0.50;;
15665;SDS011;20725;51.196;3.510;2022-08-05T12:21:11;1.55;;;0.50;;
15665;SDS011;20725;51.196;3.510;2022-08-05T12:26:36;2.58;;;0.50;;
15665;SDS011;20725;51.196;3.510;2022-08-05T12:29:04;1.27;;;0.50;;
15665;SDS011;20725;51.196;3.510;2022-08-05T12:31:38;3.35;;;0.63;;
15665;SDS011;20725;51.196;3.510;2022-08-05T12:34:11;5.80;;;0.30;;
15665;SDS011;20725;51.196;3.510;2022-08-05T12:39:36;0.55;;;0.28;;
15665;SDS011;20725;51.196;3.510;2022-08-05T12:42:38;2.17;;;0.30;;
15665;SDS011;20725;51.196;3.510;2022-08-05T12:45:07;0.65;;;0.40;;
15665;SDS011;20725;51.196;3.510;2022-08-05T12:47:35;2.53;;;0.57;;
15665;SDS011;20725;51.196;3.510;2022-08-05T12:50:11;1.55;;;0.50;;
15665;SDS011;20725;51.196;3.510;2022-08-05T12:58:00;1.50;;;0.50;;
15665;SDS011;20725;51.196;3.510;2022-08-05T13:15:54;3.40;;;0.60;;
15665;SDS011;20725;51.196;3.510;2022-08-05T13:18:24;0.90;;;0.50;;
15665;SDS011;20725;51.196;3.510;2022-08-05T13:24:08;2.05;;;0.60;;
15665;SDS011;20725;51.196;3.510;2022-08-05T13:26:35;2.25;;;0.50;;
15665;SDS011;20725;51.196;3.510;2022-08-05T13:29:25;3.15;;;0.52;;
15665;SDS011;20725;51.196;3.510;2022-08-05T13:31:58;2.50;;;0.55;;
15665;SDS011;20725;51.196;3.510;2022-08-05T13:34:27;2.20;;;0.60;;
15665;SDS011;20725;51.196;3.510;2022-08-05T13:36:56;3.38;;;0.90;;
15665;SDS011;20725;51.196;3.510;2022-08-05T13:39:28;1.73;;;0.68;;
15665;SDS011;20725;51.196;3.510;2022-08-05T13:41:55;3.25;;;0.70;;
15665;SDS011;20725;51.196;3.510;2022-08-05T13:44:28;3.70;;;0.75;;
15665;SDS011;20725;51.196;3.510;2022-08-05T13:46:57;1.15;;;0.60;;
15665;SDS011;20725;51.196;3.510;2022-08-05T13:49:24;2.25;;;0.70;;
15665;SDS011;20725;51.196;3.510;2022-08-05T13:51:52;0.75;;;0.50;;
15665;SDS011;20725;51.196;3.510;2022-08-05T13:54:21;2.85;;;0.50;;
15665;SDS011;20725;51.196;3.510;2022-08-05T13:56:55;2.00;;;0.52;;
15665;SDS011;20725;51.196;3.510;2022-08-05T13:59:24;1.65;;;0.60;;
15665;SDS011;20725;51.196;3.510;2022-08-05T14:01:55;2.40;;;0.70;;
15665;SDS011;20725;51.196;3.510;2022-08-05T14:04:26;3.75;;;0.75;;
15665;SDS011;20725;51.196;3.510;2022-08-05T14:07:15;3.47;;;0.52;;
15665;SDS011;20725;51.196;3.510;2022-08-05T14:10:15;4.07;;;0.75;;
15665;SDS011;20725;51.196;3.510;2022-08-05T14:12:37;3.85;;;0.80;;
15665;SDS011;20725;51.196;3.510;2022-08-05T14:15:13;3.00;;;0.70;;
15665;SDS011;20725;51.196;3.510;2022-08-05T14:17:43;0.50;;;0.45;;
15665;SDS011;20725;51.196;3.510;2022-08-05T14:20:15;1.58;;;0.60;;
15665;SDS011;20725;51.196;3.510;2022-08-05T14:22:44;1.92;;;0.60;;
15665;SDS011;20725;51.196;3.510;2022-08-05T14:25:14;1.45;;;0.70;;
15665;SDS011;20725;51.196;3.510;2022-08-05T14:27:44;4.82;;;0.90;;
15665;SDS011;20725;51.196;3.510;2022-08-05T14:30:15;3.60;;;0.90;;
15665;SDS011;20725;51.196;3.510;2022-08-05T14:32:44;3.90;;;0.80;;
15665;SDS011;20725;51.196;3.510;2022-08-05T14:35:13;2.53;;;0.60;;
15665;SDS011;20725;51.196;3.510;2022-08-05T14:37:46;2.57;;;0.73;;
15665;SDS011;20725;51.196;3.510;2022-08-05T14:45:31;4.35;;;0.90;;
15665;SDS011;20725;51.196;3.510;2022-08-05T14:50:25;3.40;;;0.98;;
15665;SDS011;20725;51.196;3.510;2022-08-05T14:55:22;3.20;;;0.80;;
15665;SDS011;20725;51.196;3.510;2022-08-05T14:57:49;2.60;;;0.88;;
15665;SDS011;20725;51.196;3.510;2022-08-05T15:00:18;2.38;;;0.82;;
15665;SDS011;20725;51.196;3.510;2022-08-05T15:02:56;1.80;;;1.10;;
15665;SDS011;20725;51.196;3.510;2022-08-05T15:05:37;4.07;;;0.90;;
15665;SDS011;20725;51.196;3.510;2022-08-05T15:08:04;4.95;;;1.23;;
15665;SDS011;20725;51.196;3.510;2022-08-05T15:10:33;6.10;;;1.40;;
15665;SDS011;20725;51.196;3.510;2022-08-05T15:13:04;3.05;;;1.10;;
15665;SDS011;20725;51.196;3.510;2022-08-05T15:15:37;6.50;;;1.30;;
15665;SDS011;20725;51.196;3.510;2022-08-05T22:24:11;3.07;;;1.60;;
15665;SDS011;20725;51.196;3.510;2022-08-05T22:26:55;6.80;;;1.60;;
15665;SDS011;20725;51.196;3.510;2022-08-05T22:29:41;8.67;;;1.90;;
15665;SDS011;20725;51.196;3.510;2022-08-05T22:32:08;7.20;;;2.13;;
15665;SDS011;20725;51.196;3.510;2022-08-05T22:34:35;6.20;;;1.90;;
15665;SDS011;20725;51.196;3.510;2022-08-05T22:37:02;6.60;;;2.07;;
15665;SDS011;20725;51.196;3.510;2022-08-05T22:39:29;5.10;;;1.87;;
15665;SDS011;20725;51.196;3.510;2022-08-05T22:41:56;5.87;;;1.97;;
15665;SDS011;20725;51.196;3.510;2022-08-05T22:44:23;6.37;;;1.93;;
15665;SDS011;20725;51.196;3.510;2022-08-05T22:46:51;6.30;;;1.47;;
15665;SDS011;20725;51.196;3.510;2022-08-05T22:49:18;9.00;;;2.03;;
15665;SDS011;20725;51.196;3.510;2022-08-05T22:51:45;3.13;;;1.93;;
15665;SDS011;20725;51.196;3.510;2022-08-05T22:54:12;4.30;;;1.63;;
15665;SDS011;20725;51.196;3.510;2022-08-05T22:56:39;3.03;;;1.93;;
15665;SDS011;20725;51.196;3.510;2022-08-05T22:59:06;3.47;;;2.10;;
15665;SDS011;20725;51.196;3.510;2022-08-05T23:01:34;4.23;;;2.20;;
15665;SDS011;20725;51.196;3.510;2022-08-05T23:04:03;4.70;;;1.90;;
15665;SDS011;20725;51.196;3.510;2022-08-05T23:06:30;5.10;;;1.67;;
15665;SDS011;20725;51.196;3.510;2022-08-05T23:08:57;2.80;;;1.60;;
15665;SDS011;20725;51.196;3.510;2022-08-05T23:11:26;3.57;;;2.10;;
15665;SDS011;20725;51.196;3.510;2022-08-05T23:13:53;9.40;;;2.00;;
15665;SDS011;20725;51.196;3.510;2022-08-05T23:16:20;4.67;;;1.50;;
15665;SDS011;20725;51.196;3.510;2022-08-05T23:19:08;7.47;;;2.30;;
15665;SDS011;20725;51.196;3.510;2022-08-05T23:21:35;5.30;;;2.03;;
15665;SDS011;20725;51.196;3.510;2022-08-05T23:24:02;5.03;;;2.00;;
15665;SDS011;20725;51.196;3.510;2022-08-05T23:26:29;4.53;;;2.00;;
15665;SDS011;20725;51.196;3.510;2022-08-05T23:28:56;4.43;;;1.80;;
15665;SDS011;20725;51.196;3.510;2022-08-05T23:31:23;3.83;;;2.20;;
15665;SDS011;20725;51.196;3.510;2022-08-05T23:33:50;4.87;;;1.73;;
15665;SDS011;20725;51.196;3.510;2022-08-05T23:36:19;6.00;;;2.47;;
15665;SDS011;20725;51.196;3.510;2022-08-05T23:38:46;3.60;;;1.90;;
15665;SDS011;20725;51.196;3.510;2022-08-05T23:41:13;7.77;;;2.13;;
15665;SDS011;20725;51.196;3.510;2022-08-05T23:43:40;5.50;;;1.83;;
15665;SDS011;20725;51.196;3.510;2022-08-05T23:46:09;5.13;;;1.80;;
15665;SDS011;20725;51.196;3.510;2022-08-05T23:48:36;3.07;;;2.47;;
15665;SDS011;20725;51.196;3.510;2022-08-05T23:51:04;7.53;;;2.63;;
15665;SDS011;20725;51.196;3.510;2022-08-05T23:53:32;3.10;;;2.00;;
15665;SDS011;20725;51.196;3.510;2022-08-05T23:56:00;6.67;;;2.50;;
15665;SDS011;20725;51.196;3.510;2022-08-05T23:58:27;7.97;;;2.40;;
